sensor_id;sensor_type;location;lat;lon;timestamp;temperature;humidity
7934;DHT22;4012;48.896;9.192;2023-02-11T00:00:04;0.80;99.90
7934;DHT22;4012;48.896;9.192;2023-02-11T00:02:33;0.80;99.90
7934;DHT22;4012;48.896;9.192;2023-02-11T00:04:59;0.80;99.90
7934;DHT22;4012;48.896;9.192;2023-02-11T00:07:29;0.80;99.90
7934;DHT22;4012;48.896;9.192;2023-02-11T00:09:55;0.70;99.90
7934;DHT22;4012;48.896;9.192;2023-02-11T00:12:20;0.70;99.90
7934;DHT22;4012;48.896;9.192;2023-02-11T00:14:46;0.70;99.90
7934;DHT22;4012;48.896;9.192;2023-02-11T00:17:15;0.70;99.90
7934;DHT22;4012;48.896;9.192;2023-02-11T00:19:43;0.70;99.90
7934;DHT22;4012;48.896;9.192;2023-02-11T00:22:09;0.70;99.90
7934;DHT22;4012;48.896;9.192;2023-02-11T00:24:35;0.70;99.90
7934;DHT22;4012;48.896;9.192;2023-02-11T00:27:01;0.70;99.90
7934;DHT22;4012;48.896;9.192;2023-02-11T00:29:27;0.60;99.90
7934;DHT22;4012;48.896;9.192;2023-02-11T00:31:52;0.60;99.90
7934;DHT22;4012;48.896;9.192;2023-02-11T00:34:18;0.60;99.90
7934;DHT22;4012;48.896;9.192;2023-02-11T00:36:43;0.60;99.90
7934;DHT22;4012;48.896;9.192;2023-02-11T00:39:09;0.60;99.90
7934;DHT22;4012;48.896;9.192;2023-02-11T00:41:35;0.60;99.90
7934;DHT22;4012;48.896;9.192;2023-02-11T00:44:01;0.60;99.90
7934;DHT22;4012;48.896;9.192;2023-02-11T00:46:27;0.60;99.90
7934;DHT22;4012;48.896;9.192;2023-02-11T00:48:52;0.60;99.90
7934;DHT22;4012;48.896;9.192;2023-02-11T00:51:25;0.60;99.90
7934;DHT22;4012;48.896;9.192;2023-02-11T00:53:51;0.50;99.90
7934;DHT22;4012;48.896;9.192;2023-02-11T00:56:16;0.50;99.90
7934;DHT22;4012;48.896;9.192;2023-02-11T00:58:42;0.50;99.90
7934;DHT22;4012;48.896;9.192;2023-02-11T01:01:08;0.50;99.90
7934;DHT22;4012;48.896;9.192;2023-02-11T01:03:34;0.40;99.90
7934;DHT22;4012;48.896;9.192;2023-02-11T01:06:00;0.30;99.90
7934;DHT22;4012;48.896;9.192;2023-02-11T01:08:25;0.30;99.90
7934;DHT22;4012;48.896;9.192;2023-02-11T01:11:00;0.30;99.90
7934;DHT22;4012;48.896;9.192;2023-02-11T01:13:27;0.20;99.90
7934;DHT22;4012;48.896;9.192;2023-02-11T01:15:54;0.20;99.90
7934;DHT22;4012;48.896;9.192;2023-02-11T01:18:20;0.20;99.90
7934;DHT22;4012;48.896;9.192;2023-02-11T01:20:50;0.10;99.90
7934;DHT22;4012;48.896;9.192;2023-02-11T01:23:16;0.10;99.90
7934;DHT22;4012;48.896;9.192;2023-02-11T01:25:42;0.10;99.90
7934;DHT22;4012;48.896;9.192;2023-02-11T01:28:15;0.10;99.90
7934;DHT22;4012;48.896;9.192;2023-02-11T01:30:41;0.10;99.90
7934;DHT22;4012;48.896;9.192;2023-02-11T01:33:07;0.10;99.90
7934;DHT22;4012;48.896;9.192;2023-02-11T01:35:33;0.10;99.90
7934;DHT22;4012;48.896;9.192;2023-02-11T01:37:58;0.00;99.90
7934;DHT22;4012;48.896;9.192;2023-02-11T01:40:24;0.00;99.90
7934;DHT22;4012;48.896;9.192;2023-02-11T01:42:49;0.00;99.90
7934;DHT22;4012;48.896;9.192;2023-02-11T01:48:12;0.00;99.90
7934;DHT22;4012;48.896;9.192;2023-02-11T01:50:40;0.00;99.90
7934;DHT22;4012;48.896;9.192;2023-02-11T01:53:07;0.00;99.90
7934;DHT22;4012;48.896;9.192;2023-02-11T01:55:53;0.00;99.90
7934;DHT22;4012;48.896;9.192;2023-02-11T01:58:41;0.10;99.90
7934;DHT22;4012;48.896;9.192;2023-02-11T02:01:10;0.30;99.90
7934;DHT22;4012;48.896;9.192;2023-02-11T02:03:38;0.30;99.90
7934;DHT22;4012;48.896;9.192;2023-02-11T02:06:13;0.40;99.90
7934;DHT22;4012;48.896;9.192;2023-02-11T02:08:52;0.40;99.90
7934;DHT22;4012;48.896;9.192;2023-02-11T02:11:20;0.40;99.90
7934;DHT22;4012;48.896;9.192;2023-02-11T02:13:45;0.50;99.90
7934;DHT22;4012;48.896;9.192;2023-02-11T02:16:13;0.50;99.90
7934;DHT22;4012;48.896;9.192;2023-02-11T02:38:34;0.20;99.90
7934;DHT22;4012;48.896;9.192;2023-02-11T02:41:10;0.30;99.90
7934;DHT22;4012;48.896;9.192;2023-02-11T02:43:39;0.30;99.90
7934;DHT22;4012;48.896;9.192;2023-02-11T02:48:38;0.30;99.90
7934;DHT22;4012;48.896;9.192;2023-02-11T02:57:03;0.10;99.90
7934;DHT22;4012;48.896;9.192;2023-02-11T03:05:09;0.00;99.90
7934;DHT22;4012;48.896;9.192;2023-02-11T03:07:59;-0.10;99.90
7934;DHT22;4012;48.896;9.192;2023-02-11T03:10:45;-0.10;99.90
7934;DHT22;4012;48.896;9.192;2023-02-11T03:13:13;-0.10;99.90
7934;DHT22;4012;48.896;9.192;2023-02-11T03:15:43;-0.10;99.90
7934;DHT22;4012;48.896;9.192;2023-02-11T03:18:13;-0.20;99.90
7934;DHT22;4012;48.896;9.192;2023-02-11T03:20:41;-0.20;99.90
7934;DHT22;4012;48.896;9.192;2023-02-11T03:23:22;-0.20;99.90
7934;DHT22;4012;48.896;9.192;2023-02-11T03:25:56;-0.20;99.90
7934;DHT22;4012;48.896;9.192;2023-02-11T03:28:36;-0.10;99.90
7934;DHT22;4012;48.896;9.192;2023-02-11T03:31:19;-0.10;99.90
7934;DHT22;4012;48.896;9.192;2023-02-11T03:36:20;-0.10;99.90
7934;DHT22;4012;48.896;9.192;2023-02-11T03:38:50;-0.10;99.90
7934;DHT22;4012;48.896;9.192;2023-02-11T03:41:20;-0.10;99.90
7934;DHT22;4012;48.896;9.192;2023-02-11T03:43:52;-0.10;99.90
7934;DHT22;4012;48.896;9.192;2023-02-11T03:46:21;-0.10;99.90
7934;DHT22;4012;48.896;9.192;2023-02-11T03:48:50;-0.10;99.90
7934;DHT22;4012;48.896;9.192;2023-02-11T03:51:19;0.00;99.90
7934;DHT22;4012;48.896;9.192;2023-02-11T03:53:46;0.00;99.90
7934;DHT22;4012;48.896;9.192;2023-02-11T03:56:17;0.00;99.90
7934;DHT22;4012;48.896;9.192;2023-02-11T03:58:44;0.00;99.90
7934;DHT22;4012;48.896;9.192;2023-02-11T04:01:10;0.20;99.90
7934;DHT22;4012;48.896;9.192;2023-02-11T04:03:36;0.30;99.90
7934;DHT22;4012;48.896;9.192;2023-02-11T04:06:02;0.30;99.90
7934;DHT22;4012;48.896;9.192;2023-02-11T04:08:28;0.40;99.90
7934;DHT22;4012;48.896;9.192;2023-02-11T04:10:54;0.40;99.90
7934;DHT22;4012;48.896;9.192;2023-02-11T04:13:19;0.40;99.90
7934;DHT22;4012;48.896;9.192;2023-02-11T04:15:45;0.40;99.90
7934;DHT22;4012;48.896;9.192;2023-02-11T04:18:11;0.40;99.90
7934;DHT22;4012;48.896;9.192;2023-02-11T04:20:36;0.40;99.90
7934;DHT22;4012;48.896;9.192;2023-02-11T04:23:02;0.40;99.90
7934;DHT22;4012;48.896;9.192;2023-02-11T04:25:27;0.40;99.90
7934;DHT22;4012;48.896;9.192;2023-02-11T04:27:53;0.40;99.90
7934;DHT22;4012;48.896;9.192;2023-02-11T04:30:19;0.40;99.90
7934;DHT22;4012;48.896;9.192;2023-02-11T04:32:44;0.50;99.90
7934;DHT22;4012;48.896;9.192;2023-02-11T04:35:10;0.50;99.90
7934;DHT22;4012;48.896;9.192;2023-02-11T04:37:36;0.60;99.90
7934;DHT22;4012;48.896;9.192;2023-02-11T04:40:01;0.60;99.90
7934;DHT22;4012;48.896;9.192;2023-02-11T04:42:27;0.60;99.90
7934;DHT22;4012;48.896;9.192;2023-02-11T04:44:52;0.60;99.90
7934;DHT22;4012;48.896;9.192;2023-02-11T04:47:18;0.60;99.90
7934;DHT22;4012;48.896;9.192;2023-02-11T04:49:43;0.60;99.90
7934;DHT22;4012;48.896;9.192;2023-02-11T04:52:09;0.60;99.90
7934;DHT22;4012;48.896;9.192;2023-02-11T04:54:35;0.60;99.90
7934;DHT22;4012;48.896;9.192;2023-02-11T04:57:01;0.60;99.90
7934;DHT22;4012;48.896;9.192;2023-02-11T04:59:27;0.60;99.90
7934;DHT22;4012;48.896;9.192;2023-02-11T05:01:52;0.60;99.90
7934;DHT22;4012;48.896;9.192;2023-02-11T05:04:18;0.70;99.90
7934;DHT22;4012;48.896;9.192;2023-02-11T05:06:43;0.70;99.90
7934;DHT22;4012;48.896;9.192;2023-02-11T05:09:11;0.70;99.90
7934;DHT22;4012;48.896;9.192;2023-02-11T05:11:36;0.70;99.90
7934;DHT22;4012;48.896;9.192;2023-02-11T05:14:04;0.50;99.90
7934;DHT22;4012;48.896;9.192;2023-02-11T05:16:30;0.50;99.90
7934;DHT22;4012;48.896;9.192;2023-02-11T05:18:55;0.50;99.90
7934;DHT22;4012;48.896;9.192;2023-02-11T05:21:21;0.50;99.90
7934;DHT22;4012;48.896;9.192;2023-02-11T05:23:46;0.50;99.90
7934;DHT22;4012;48.896;9.192;2023-02-11T05:26:13;0.50;99.90
7934;DHT22;4012;48.896;9.192;2023-02-11T05:28:39;0.50;99.90
7934;DHT22;4012;48.896;9.192;2023-02-11T05:31:06;0.50;99.90
7934;DHT22;4012;48.896;9.192;2023-02-11T05:33:32;0.50;99.90
7934;DHT22;4012;48.896;9.192;2023-02-11T05:36:03;0.40;99.90
7934;DHT22;4012;48.896;9.192;2023-02-11T05:38:28;0.50;99.90
7934;DHT22;4012;48.896;9.192;2023-02-11T05:40:54;0.50;99.90
7934;DHT22;4012;48.896;9.192;2023-02-11T05:43:20;0.60;99.90
7934;DHT22;4012;48.896;9.192;2023-02-11T05:45:46;0.60;99.90
7934;DHT22;4012;48.896;9.192;2023-02-11T05:48:11;0.60;99.90
7934;DHT22;4012;48.896;9.192;2023-02-11T05:50:37;0.60;99.90
7934;DHT22;4012;48.896;9.192;2023-02-11T05:53:02;0.60;99.90
7934;DHT22;4012;48.896;9.192;2023-02-11T05:55:28;0.70;99.90
7934;DHT22;4012;48.896;9.192;2023-02-11T05:57:54;0.70;99.90
7934;DHT22;4012;48.896;9.192;2023-02-11T06:00:19;0.80;99.90
7934;DHT22;4012;48.896;9.192;2023-02-11T06:02:45;0.80;99.90
7934;DHT22;4012;48.896;9.192;2023-02-11T06:05:10;0.90;99.90
7934;DHT22;4012;48.896;9.192;2023-02-11T06:07:36;0.70;99.90
7934;DHT22;4012;48.896;9.192;2023-02-11T06:10:02;0.80;99.90
7934;DHT22;4012;48.896;9.192;2023-02-11T06:12:27;0.90;99.90
7934;DHT22;4012;48.896;9.192;2023-02-11T06:14:53;0.90;99.90
7934;DHT22;4012;48.896;9.192;2023-02-11T06:17:18;0.90;99.90
7934;DHT22;4012;48.896;9.192;2023-02-11T06:19:44;0.90;99.90
7934;DHT22;4012;48.896;9.192;2023-02-11T06:22:10;1.00;99.90
7934;DHT22;4012;48.896;9.192;2023-02-11T06:24:35;1.00;99.90
7934;DHT22;4012;48.896;9.192;2023-02-11T06:27:03;1.00;99.90
7934;DHT22;4012;48.896;9.192;2023-02-11T06:29:29;1.00;99.90
7934;DHT22;4012;48.896;9.192;2023-02-11T06:31:54;1.00;99.90
7934;DHT22;4012;48.896;9.192;2023-02-11T06:34:20;1.00;99.90
7934;DHT22;4012;48.896;9.192;2023-02-11T06:36:45;1.00;99.90
7934;DHT22;4012;48.896;9.192;2023-02-11T06:39:12;1.00;99.90
7934;DHT22;4012;48.896;9.192;2023-02-11T06:41:37;1.00;99.90
7934;DHT22;4012;48.896;9.192;2023-02-11T06:44:03;1.00;99.90
7934;DHT22;4012;48.896;9.192;2023-02-11T06:46:28;1.00;99.90
7934;DHT22;4012;48.896;9.192;2023-02-11T06:48:54;1.00;99.90
7934;DHT22;4012;48.896;9.192;2023-02-11T06:51:20;1.00;99.90
7934;DHT22;4012;48.896;9.192;2023-02-11T06:53:46;1.00;99.90
7934;DHT22;4012;48.896;9.192;2023-02-11T06:56:15;1.00;99.90
7934;DHT22;4012;48.896;9.192;2023-02-11T06:58:41;1.00;99.90
7934;DHT22;4012;48.896;9.192;2023-02-11T07:01:10;1.00;99.90
7934;DHT22;4012;48.896;9.192;2023-02-11T07:03:38;1.00;99.90
7934;DHT22;4012;48.896;9.192;2023-02-11T07:06:05;0.90;99.90
7934;DHT22;4012;48.896;9.192;2023-02-11T07:08:36;0.90;99.90
7934;DHT22;4012;48.896;9.192;2023-02-11T07:11:11;0.90;99.90
7934;DHT22;4012;48.896;9.192;2023-02-11T07:13:37;0.90;99.90
7934;DHT22;4012;48.896;9.192;2023-02-11T07:16:05;0.90;99.90
7934;DHT22;4012;48.896;9.192;2023-02-11T07:18:31;1.00;99.90
7934;DHT22;4012;48.896;9.192;2023-02-11T07:20:56;1.00;99.90
7934;DHT22;4012;48.896;9.192;2023-02-11T07:23:22;1.00;99.90
7934;DHT22;4012;48.896;9.192;2023-02-11T07:25:47;1.00;99.90
7934;DHT22;4012;48.896;9.192;2023-02-11T07:28:13;1.00;99.90
7934;DHT22;4012;48.896;9.192;2023-02-11T07:30:38;1.10;99.90
7934;DHT22;4012;48.896;9.192;2023-02-11T07:33:04;1.10;99.90
7934;DHT22;4012;48.896;9.192;2023-02-11T07:35:30;1.20;99.90
7934;DHT22;4012;48.896;9.192;2023-02-11T07:37:55;1.30;99.90
7934;DHT22;4012;48.896;9.192;2023-02-11T07:40:21;1.30;99.90
7934;DHT22;4012;48.896;9.192;2023-02-11T07:42:46;1.30;99.90
7934;DHT22;4012;48.896;9.192;2023-02-11T07:45:12;1.30;99.90
7934;DHT22;4012;48.896;9.192;2023-02-11T07:47:38;1.30;99.90
7934;DHT22;4012;48.896;9.192;2023-02-11T07:50:04;1.40;99.90
7934;DHT22;4012;48.896;9.192;2023-02-11T07:52:31;1.40;99.90
7934;DHT22;4012;48.896;9.192;2023-02-11T07:54:56;1.50;99.90
7934;DHT22;4012;48.896;9.192;2023-02-11T07:57:22;1.50;99.90
7934;DHT22;4012;48.896;9.192;2023-02-11T07:59:47;1.60;99.90
7934;DHT22;4012;48.896;9.192;2023-02-11T08:02:13;1.90;99.90
7934;DHT22;4012;48.896;9.192;2023-02-11T08:04:39;2.10;99.90
7934;DHT22;4012;48.896;9.192;2023-02-11T08:07:04;2.20;99.90
7934;DHT22;4012;48.896;9.192;2023-02-11T08:09:31;2.40;99.90
7934;DHT22;4012;48.896;9.192;2023-02-11T08:11:56;2.50;99.90
7934;DHT22;4012;48.896;9.192;2023-02-11T08:14:22;2.60;99.90
7934;DHT22;4012;48.896;9.192;2023-02-11T08:16:49;2.60;99.90
7934;DHT22;4012;48.896;9.192;2023-02-11T08:19:16;2.70;99.90
7934;DHT22;4012;48.896;9.192;2023-02-11T08:21:42;2.90;99.90
7934;DHT22;4012;48.896;9.192;2023-02-11T08:24:08;3.00;99.90
7934;DHT22;4012;48.896;9.192;2023-02-11T08:26:35;3.10;99.90
7934;DHT22;4012;48.896;9.192;2023-02-11T08:29:06;3.40;99.90
7934;DHT22;4012;48.896;9.192;2023-02-11T08:31:36;3.50;99.90
7934;DHT22;4012;48.896;9.192;2023-02-11T08:34:03;3.70;99.90
7934;DHT22;4012;48.896;9.192;2023-02-11T08:36:31;3.80;99.90
7934;DHT22;4012;48.896;9.192;2023-02-11T08:38:58;3.90;99.90
7934;DHT22;4012;48.896;9.192;2023-02-11T08:41:24;4.10;99.90
7934;DHT22;4012;48.896;9.192;2023-02-11T08:43:50;4.40;99.90
7934;DHT22;4012;48.896;9.192;2023-02-11T08:46:17;5.10;99.90
7934;DHT22;4012;48.896;9.192;2023-02-11T08:48:44;7.20;99.90
7934;DHT22;4012;48.896;9.192;2023-02-11T08:51:28;9.10;99.90
7934;DHT22;4012;48.896;9.192;2023-02-11T08:53:58;10.90;99.90
7934;DHT22;4012;48.896;9.192;2023-02-11T08:56:24;11.50;99.90
7934;DHT22;4012;48.896;9.192;2023-02-11T08:58:50;11.30;99.90
7934;DHT22;4012;48.896;9.192;2023-02-11T09:01:19;11.90;99.90
7934;DHT22;4012;48.896;9.192;2023-02-11T09:03:45;13.00;99.90
7934;DHT22;4012;48.896;9.192;2023-02-11T09:06:12;13.30;99.90
7934;DHT22;4012;48.896;9.192;2023-02-11T09:08:40;14.80;99.90
7934;DHT22;4012;48.896;9.192;2023-02-11T09:11:07;14.50;99.90
7934;DHT22;4012;48.896;9.192;2023-02-11T09:13:33;14.80;99.90
7934;DHT22;4012;48.896;9.192;2023-02-11T09:16:00;15.20;99.90
7934;DHT22;4012;48.896;9.192;2023-02-11T09:18:26;16.50;99.90
7934;DHT22;4012;48.896;9.192;2023-02-11T09:20:53;16.10;99.90
7934;DHT22;4012;48.896;9.192;2023-02-11T09:23:18;16.10;99.90
7934;DHT22;4012;48.896;9.192;2023-02-11T09:25:44;16.60;99.90
7934;DHT22;4012;48.896;9.192;2023-02-11T09:28:10;16.40;99.90
7934;DHT22;4012;48.896;9.192;2023-02-11T09:30:37;16.30;99.90
7934;DHT22;4012;48.896;9.192;2023-02-11T09:33:03;16.50;99.90
7934;DHT22;4012;48.896;9.192;2023-02-11T09:35:28;15.40;99.90
7934;DHT22;4012;48.896;9.192;2023-02-11T09:37:54;14.20;99.90
7934;DHT22;4012;48.896;9.192;2023-02-11T09:40:21;13.40;99.90
7934;DHT22;4012;48.896;9.192;2023-02-11T09:45:34;13.80;99.90
7934;DHT22;4012;48.896;9.192;2023-02-11T09:48:17;14.60;99.90
7934;DHT22;4012;48.896;9.192;2023-02-11T09:50:50;13.80;99.90
7934;DHT22;4012;48.896;9.192;2023-02-11T09:53:23;13.50;99.90
7934;DHT22;4012;48.896;9.192;2023-02-11T09:55:52;13.40;99.90
7934;DHT22;4012;48.896;9.192;2023-02-11T09:58:32;12.50;99.90
7934;DHT22;4012;48.896;9.192;2023-02-11T10:01:03;11.90;99.90
7934;DHT22;4012;48.896;9.192;2023-02-11T10:06:43;10.60;99.90
7934;DHT22;4012;48.896;9.192;2023-02-11T10:09:36;10.50;99.90
7934;DHT22;4012;48.896;9.192;2023-02-11T10:18:02;13.00;99.90
7934;DHT22;4012;48.896;9.192;2023-02-11T10:21:04;14.80;99.90
7934;DHT22;4012;48.896;9.192;2023-02-11T10:23:36;14.70;99.90
7934;DHT22;4012;48.896;9.192;2023-02-11T10:26:11;14.80;99.90
7934;DHT22;4012;48.896;9.192;2023-02-11T10:28:39;14.90;99.90
7934;DHT22;4012;48.896;9.192;2023-02-11T10:31:16;14.90;99.90
7934;DHT22;4012;48.896;9.192;2023-02-11T10:36:13;15.30;99.90
7934;DHT22;4012;48.896;9.192;2023-02-11T10:38:40;16.00;99.90
7934;DHT22;4012;48.896;9.192;2023-02-11T10:41:08;15.00;99.90
7934;DHT22;4012;48.896;9.192;2023-02-11T10:43:34;14.50;99.90
7934;DHT22;4012;48.896;9.192;2023-02-11T10:46:02;12.30;99.90
7934;DHT22;4012;48.896;9.192;2023-02-11T10:53:42;13.70;99.90
7934;DHT22;4012;48.896;9.192;2023-02-11T10:56:11;14.20;99.90
7934;DHT22;4012;48.896;9.192;2023-02-11T10:58:53;14.10;99.90
7934;DHT22;4012;48.896;9.192;2023-02-11T11:01:20;14.10;99.90
7934;DHT22;4012;48.896;9.192;2023-02-11T11:03:50;13.90;99.90
7934;DHT22;4012;48.896;9.192;2023-02-11T11:06:30;12.30;99.90
7934;DHT22;4012;48.896;9.192;2023-02-11T11:08:56;13.00;99.90
7934;DHT22;4012;48.896;9.192;2023-02-11T11:11:24;12.20;99.90
7934;DHT22;4012;48.896;9.192;2023-02-11T11:21:41;10.30;99.90
7934;DHT22;4012;48.896;9.192;2023-02-11T11:24:23;10.00;99.90
7934;DHT22;4012;48.896;9.192;2023-02-11T11:26:55;9.90;99.90
7934;DHT22;4012;48.896;9.192;2023-02-11T11:29:30;10.40;99.90
7934;DHT22;4012;48.896;9.192;2023-02-11T11:32:02;10.30;99.90
7934;DHT22;4012;48.896;9.192;2023-02-11T11:34:38;9.70;99.90
7934;DHT22;4012;48.896;9.192;2023-02-11T11:42:40;9.10;99.90
7934;DHT22;4012;48.896;9.192;2023-02-11T11:47:47;9.80;99.90
7934;DHT22;4012;48.896;9.192;2023-02-11T11:52:59;10.10;99.90
7934;DHT22;4012;48.896;9.192;2023-02-11T11:55:27;10.10;99.90
7934;DHT22;4012;48.896;9.192;2023-02-11T11:57:55;9.90;99.90
7934;DHT22;4012;48.896;9.192;2023-02-11T12:00:45;10.10;99.90
7934;DHT22;4012;48.896;9.192;2023-02-11T12:12:26;10.10;99.90
7934;DHT22;4012;48.896;9.192;2023-02-11T12:15:30;10.30;99.90
7934;DHT22;4012;48.896;9.192;2023-02-11T12:23:42;11.00;99.90
7934;DHT22;4012;48.896;9.192;2023-02-11T12:26:15;10.60;99.90
7934;DHT22;4012;48.896;9.192;2023-02-11T12:31:54;10.20;99.90
7934;DHT22;4012;48.896;9.192;2023-02-11T12:40:16;10.30;99.90
7934;DHT22;4012;48.896;9.192;2023-02-11T12:42:59;10.30;99.90
7934;DHT22;4012;48.896;9.192;2023-02-11T12:54:31;9.30;99.90
7934;DHT22;4012;48.896;9.192;2023-02-11T13:05:01;9.10;99.90
7934;DHT22;4012;48.896;9.192;2023-02-11T13:07:36;9.10;99.90
7934;DHT22;4012;48.896;9.192;2023-02-11T13:10:21;9.00;99.90
7934;DHT22;4012;48.896;9.192;2023-02-11T13:12:49;8.80;99.90
7934;DHT22;4012;48.896;9.192;2023-02-11T13:15:34;8.80;99.90
7934;DHT22;4012;48.896;9.192;2023-02-11T13:18:20;8.90;99.90
7934;DHT22;4012;48.896;9.192;2023-02-11T13:23:40;8.80;99.90
7934;DHT22;4012;48.896;9.192;2023-02-11T13:26:22;8.80;99.90
7934;DHT22;4012;48.896;9.192;2023-02-11T13:31:21;8.70;99.90
7934;DHT22;4012;48.896;9.192;2023-02-11T13:33:51;8.80;99.90
7934;DHT22;4012;48.896;9.192;2023-02-11T13:36:19;8.90;99.90
7934;DHT22;4012;48.896;9.192;2023-02-11T13:38:59;8.90;99.90
7934;DHT22;4012;48.896;9.192;2023-02-11T13:41:32;8.80;99.90
7934;DHT22;4012;48.896;9.192;2023-02-11T13:46:46;9.00;99.90
7934;DHT22;4012;48.896;9.192;2023-02-11T13:49:28;9.10;99.90
7934;DHT22;4012;48.896;9.192;2023-02-11T13:51:55;8.90;99.90
7934;DHT22;4012;48.896;9.192;2023-02-11T13:54:28;8.80;99.90
7934;DHT22;4012;48.896;9.192;2023-02-11T13:59:55;8.90;99.90
7934;DHT22;4012;48.896;9.192;2023-02-11T14:11:09;9.10;99.90
7934;DHT22;4012;48.896;9.192;2023-02-11T14:16:21;9.00;99.90
7934;DHT22;4012;48.896;9.192;2023-02-11T14:23:52;8.90;99.90
7934;DHT22;4012;48.896;9.192;2023-02-11T14:29:06;8.80;99.90
7934;DHT22;4012;48.896;9.192;2023-02-11T14:31:58;8.70;99.90
7934;DHT22;4012;48.896;9.192;2023-02-11T14:42:47;9.00;99.90
7934;DHT22;4012;48.896;9.192;2023-02-11T14:45:18;8.90;99.90
7934;DHT22;4012;48.896;9.192;2023-02-11T14:47:50;8.70;99.90
7934;DHT22;4012;48.896;9.192;2023-02-11T14:50:40;8.60;99.90
7934;DHT22;4012;48.896;9.192;2023-02-11T14:53:16;8.70;99.90
7934;DHT22;4012;48.896;9.192;2023-02-11T14:55:46;8.60;99.90
7934;DHT22;4012;48.896;9.192;2023-02-11T15:01:04;8.60;99.90
7934;DHT22;4012;48.896;9.192;2023-02-11T15:03:39;8.50;99.90
7934;DHT22;4012;48.896;9.192;2023-02-11T15:06:46;8.60;99.90
7934;DHT22;4012;48.896;9.192;2023-02-11T15:09:24;8.70;99.90
7934;DHT22;4012;48.896;9.192;2023-02-11T15:11:54;8.80;99.90
7934;DHT22;4012;48.896;9.192;2023-02-11T15:14:26;8.80;99.90
7934;DHT22;4012;48.896;9.192;2023-02-11T15:16:58;8.70;99.90
7934;DHT22;4012;48.896;9.192;2023-02-11T15:19:32;8.70;99.90
7934;DHT22;4012;48.896;9.192;2023-02-11T15:22:01;8.60;99.90
7934;DHT22;4012;48.896;9.192;2023-02-11T15:24:30;8.60;99.90
7934;DHT22;4012;48.896;9.192;2023-02-11T15:27:02;8.60;99.90
7934;DHT22;4012;48.896;9.192;2023-02-11T15:29:37;8.60;99.90
7934;DHT22;4012;48.896;9.192;2023-02-11T15:34:30;8.40;99.90
7934;DHT22;4012;48.896;9.192;2023-02-11T15:36:56;8.30;99.90
7934;DHT22;4012;48.896;9.192;2023-02-11T15:39:39;8.40;99.90
7934;DHT22;4012;48.896;9.192;2023-02-11T15:42:17;8.30;99.90
7934;DHT22;4012;48.896;9.192;2023-02-11T15:44:43;8.30;99.90
7934;DHT22;4012;48.896;9.192;2023-02-11T15:47:16;8.30;99.90
7934;DHT22;4012;48.896;9.192;2023-02-11T15:49:44;8.20;99.90
7934;DHT22;4012;48.896;9.192;2023-02-11T15:52:12;8.10;99.90
7934;DHT22;4012;48.896;9.192;2023-02-11T15:54:38;8.00;99.90
7934;DHT22;4012;48.896;9.192;2023-02-11T15:57:07;8.00;99.90
7934;DHT22;4012;48.896;9.192;2023-02-11T15:59:37;8.00;99.90
7934;DHT22;4012;48.896;9.192;2023-02-11T16:04:50;8.00;99.90
7934;DHT22;4012;48.896;9.192;2023-02-11T16:07:47;7.80;99.90
7934;DHT22;4012;48.896;9.192;2023-02-11T16:10:21;7.80;99.90
7934;DHT22;4012;48.896;9.192;2023-02-11T16:13:02;7.80;99.90
7934;DHT22;4012;48.896;9.192;2023-02-11T16:17:54;7.80;99.90
7934;DHT22;4012;48.896;9.192;2023-02-11T16:20:22;7.80;99.90
7934;DHT22;4012;48.896;9.192;2023-02-11T16:22:48;7.80;99.90
7934;DHT22;4012;48.896;9.192;2023-02-11T16:25:18;7.80;99.90
7934;DHT22;4012;48.896;9.192;2023-02-11T16:27:48;7.70;99.90
7934;DHT22;4012;48.896;9.192;2023-02-11T16:30:44;7.70;99.90
7934;DHT22;4012;48.896;9.192;2023-02-11T16:33:10;7.60;99.90
7934;DHT22;4012;48.896;9.192;2023-02-11T16:35:36;7.60;99.90
7934;DHT22;4012;48.896;9.192;2023-02-11T16:38:02;7.50;99.90
7934;DHT22;4012;48.896;9.192;2023-02-11T16:40:28;7.50;99.90
7934;DHT22;4012;48.896;9.192;2023-02-11T16:42:53;7.50;99.90
7934;DHT22;4012;48.896;9.192;2023-02-11T16:45:20;7.50;99.90
7934;DHT22;4012;48.896;9.192;2023-02-11T16:47:46;7.50;99.90
7934;DHT22;4012;48.896;9.192;2023-02-11T16:50:20;7.50;99.90
7934;DHT22;4012;48.896;9.192;2023-02-11T16:52:47;7.50;99.90
7934;DHT22;4012;48.896;9.192;2023-02-11T16:55:13;7.50;99.90
7934;DHT22;4012;48.896;9.192;2023-02-11T16:57:38;7.60;99.90
7934;DHT22;4012;48.896;9.192;2023-02-11T17:00:05;7.60;99.90
7934;DHT22;4012;48.896;9.192;2023-02-11T17:02:35;7.60;99.90
7934;DHT22;4012;48.896;9.192;2023-02-11T17:05:04;7.60;99.90
7934;DHT22;4012;48.896;9.192;2023-02-11T17:07:31;7.60;99.90
7934;DHT22;4012;48.896;9.192;2023-02-11T17:09:57;7.60;99.90
7934;DHT22;4012;48.896;9.192;2023-02-11T17:12:23;7.50;99.90
7934;DHT22;4012;48.896;9.192;2023-02-11T17:14:52;7.50;99.90
7934;DHT22;4012;48.896;9.192;2023-02-11T17:17:18;7.50;99.90
7934;DHT22;4012;48.896;9.192;2023-02-11T17:19:43;7.40;99.90
7934;DHT22;4012;48.896;9.192;2023-02-11T17:22:10;7.40;99.90
7934;DHT22;4012;48.896;9.192;2023-02-11T17:24:35;7.40;99.90
7934;DHT22;4012;48.896;9.192;2023-02-11T17:27:01;7.40;99.90
7934;DHT22;4012;48.896;9.192;2023-02-11T17:29:27;7.40;99.90
7934;DHT22;4012;48.896;9.192;2023-02-11T17:31:52;7.30;99.90
7934;DHT22;4012;48.896;9.192;2023-02-11T17:34:20;7.30;99.90
7934;DHT22;4012;48.896;9.192;2023-02-11T17:36:46;7.30;99.90
7934;DHT22;4012;48.896;9.192;2023-02-11T17:39:11;7.30;99.90
7934;DHT22;4012;48.896;9.192;2023-02-11T17:41:38;7.30;99.90
7934;DHT22;4012;48.896;9.192;2023-02-11T17:44:04;7.40;99.90
7934;DHT22;4012;48.896;9.192;2023-02-11T17:46:30;7.30;99.90
7934;DHT22;4012;48.896;9.192;2023-02-11T17:49:00;7.30;99.90
7934;DHT22;4012;48.896;9.192;2023-02-11T17:51:27;7.30;99.90
7934;DHT22;4012;48.896;9.192;2023-02-11T17:53:53;7.30;99.90
7934;DHT22;4012;48.896;9.192;2023-02-11T17:56:19;7.30;99.90
7934;DHT22;4012;48.896;9.192;2023-02-11T17:58:45;7.30;99.90
7934;DHT22;4012;48.896;9.192;2023-02-11T18:01:11;7.30;99.90
7934;DHT22;4012;48.896;9.192;2023-02-11T18:03:36;7.30;99.90
7934;DHT22;4012;48.896;9.192;2023-02-11T18:06:03;7.40;99.90
7934;DHT22;4012;48.896;9.192;2023-02-11T18:08:30;7.50;99.90
7934;DHT22;4012;48.896;9.192;2023-02-11T18:10:56;7.50;99.90
7934;DHT22;4012;48.896;9.192;2023-02-11T18:13:21;7.50;99.90
7934;DHT22;4012;48.896;9.192;2023-02-11T18:15:47;7.40;99.90
7934;DHT22;4012;48.896;9.192;2023-02-11T18:18:13;7.40;99.90
7934;DHT22;4012;48.896;9.192;2023-02-11T18:20:39;7.30;99.90
7934;DHT22;4012;48.896;9.192;2023-02-11T18:23:10;7.40;99.90
7934;DHT22;4012;48.896;9.192;2023-02-11T18:25:39;7.40;99.90
7934;DHT22;4012;48.896;9.192;2023-02-11T18:28:05;7.40;99.90
7934;DHT22;4012;48.896;9.192;2023-02-11T18:30:31;7.40;99.90
7934;DHT22;4012;48.896;9.192;2023-02-11T18:32:59;7.40;99.90
7934;DHT22;4012;48.896;9.192;2023-02-11T18:35:25;7.50;99.90
7934;DHT22;4012;48.896;9.192;2023-02-11T18:37:51;7.50;99.90
7934;DHT22;4012;48.896;9.192;2023-02-11T18:40:17;7.40;99.90
7934;DHT22;4012;48.896;9.192;2023-02-11T18:42:44;7.30;99.90
7934;DHT22;4012;48.896;9.192;2023-02-11T18:45:11;7.30;99.90
7934;DHT22;4012;48.896;9.192;2023-02-11T18:47:39;7.20;99.90
7934;DHT22;4012;48.896;9.192;2023-02-11T18:50:06;7.20;99.90
7934;DHT22;4012;48.896;9.192;2023-02-11T18:52:33;7.20;99.90
7934;DHT22;4012;48.896;9.192;2023-02-11T18:54:58;7.20;99.90
7934;DHT22;4012;48.896;9.192;2023-02-11T18:57:24;7.30;99.90
7934;DHT22;4012;48.896;9.192;2023-02-11T18:59:50;7.20;99.90
7934;DHT22;4012;48.896;9.192;2023-02-11T19:02:16;7.20;99.90
7934;DHT22;4012;48.896;9.192;2023-02-11T19:04:42;7.20;99.90
7934;DHT22;4012;48.896;9.192;2023-02-11T19:07:08;7.20;99.90
7934;DHT22;4012;48.896;9.192;2023-02-11T19:09:35;7.20;99.90
7934;DHT22;4012;48.896;9.192;2023-02-11T19:12:00;7.30;99.90